sensor_id;sensor_type;location;lat;lon;timestamp;P1;durP1;ratioP1;P2;durP2;ratioP2
3591;SDS011;1810;48.720;9.094;2023-07-13T00:00:18;322.73;;;308.77;;
3591;SDS011;1810;48.720;9.094;2023-07-13T00:02:48;370.38;;;353.90;;
3591;SDS011;1810;48.720;9.094;2023-07-13T00:05:20;322.45;;;308.55;;
3591;SDS011;1810;48.720;9.094;2023-07-13T00:07:48;311.77;;;298.52;;
3591;SDS011;1810;48.720;9.094;2023-07-13T00:10:18;318.55;;;304.98;;
3591;SDS011;1810;48.720;9.094;2023-07-13T00:12:46;324.75;;;310.90;;
3591;SDS011;1810;48.720;9.094;2023-07-13T00:15:16;309.92;;;296.70;;
3591;SDS011;1810;48.720;9.094;2023-07-13T00:17:51;370.75;;;354.33;;
3591;SDS011;1810;48.720;9.094;2023-07-13T00:20:24;293.27;;;280.83;;
3591;SDS011;1810;48.720;9.094;2023-07-13T00:22:54;318.13;;;304.35;;
3591;SDS011;1810;48.720;9.094;2023-07-13T00:25:23;341.33;;;326.33;;
3591;SDS011;1810;48.720;9.094;2023-07-13T00:27:54;287.10;;;275.05;;
3591;SDS011;1810;48.720;9.094;2023-07-13T00:30:26;340.27;;;325.50;;
3591;SDS011;1810;48.720;9.094;2023-07-13T00:32:59;316.13;;;302.40;;
3591;SDS011;1810;48.720;9.094;2023-07-13T00:35:43;300.65;;;287.58;;
3591;SDS011;1810;48.720;9.094;2023-07-13T00:38:15;289.70;;;277.58;;
3591;SDS011;1810;48.720;9.094;2023-07-13T00:40:47;307.48;;;294.45;;
3591;SDS011;1810;48.720;9.094;2023-07-13T00:43:28;303.95;;;291.15;;
3591;SDS011;1810;48.720;9.094;2023-07-13T00:46:10;303.80;;;290.88;;
3591;SDS011;1810;48.720;9.094;2023-07-13T00:48:47;284.73;;;273.00;;
3591;SDS011;1810;48.720;9.094;2023-07-13T00:51:17;286.15;;;274.30;;
3591;SDS011;1810;48.720;9.094;2023-07-13T00:53:52;297.38;;;285.00;;
3591;SDS011;1810;48.720;9.094;2023-07-13T00:56:25;287.15;;;275.35;;
3591;SDS011;1810;48.720;9.094;2023-07-13T00:58:54;280.77;;;269.23;;
3591;SDS011;1810;48.720;9.094;2023-07-13T01:01:26;292.60;;;280.42;;
3591;SDS011;1810;48.720;9.094;2023-07-13T01:03:56;319.52;;;306.00;;
3591;SDS011;1810;48.720;9.094;2023-07-13T01:06:25;290.33;;;278.23;;
3591;SDS011;1810;48.720;9.094;2023-07-13T01:08:53;298.88;;;286.25;;
3591;SDS011;1810;48.720;9.094;2023-07-13T01:11:23;317.27;;;303.80;;
3591;SDS011;1810;48.720;9.094;2023-07-13T01:13:53;392.75;;;374.58;;
3591;SDS011;1810;48.720;9.094;2023-07-13T01:16:22;381.15;;;364.10;;
3591;SDS011;1810;48.720;9.094;2023-07-13T01:18:53;459.55;;;437.70;;
3591;SDS011;1810;48.720;9.094;2023-07-13T01:21:29;439.58;;;418.85;;
3591;SDS011;1810;48.720;9.094;2023-07-13T01:24:00;456.02;;;434.42;;
3591;SDS011;1810;48.720;9.094;2023-07-13T01:26:29;377.52;;;360.67;;
3591;SDS011;1810;48.720;9.094;2023-07-13T01:28:58;422.42;;;402.88;;
3591;SDS011;1810;48.720;9.094;2023-07-13T01:31:30;399.00;;;380.90;;
3591;SDS011;1810;48.720;9.094;2023-07-13T01:33:58;359.90;;;344.05;;
3591;SDS011;1810;48.720;9.094;2023-07-13T01:36:30;345.13;;;330.20;;
3591;SDS011;1810;48.720;9.094;2023-07-13T01:39:02;420.58;;;400.70;;
3591;SDS011;1810;48.720;9.094;2023-07-13T01:41:32;370.00;;;353.50;;
3591;SDS011;1810;48.720;9.094;2023-07-13T01:44:01;391.98;;;374.15;;
3591;SDS011;1810;48.720;9.094;2023-07-13T01:46:36;333.50;;;318.95;;
3591;SDS011;1810;48.720;9.094;2023-07-13T01:49:06;340.17;;;325.52;;
3591;SDS011;1810;48.720;9.094;2023-07-13T01:51:36;324.23;;;310.38;;
3591;SDS011;1810;48.720;9.094;2023-07-13T01:54:05;345.65;;;330.52;;
3591;SDS011;1810;48.720;9.094;2023-07-13T01:56:34;314.15;;;300.98;;
3591;SDS011;1810;48.720;9.094;2023-07-13T01:59:03;318.50;;;305.02;;
3591;SDS011;1810;48.720;9.094;2023-07-13T02:01:34;296.17;;;283.55;;
3591;SDS011;1810;48.720;9.094;2023-07-13T02:04:03;316.27;;;302.90;;
3591;SDS011;1810;48.720;9.094;2023-07-13T02:06:32;283.85;;;272.17;;
3591;SDS011;1810;48.720;9.094;2023-07-13T02:09:06;317.75;;;304.30;;
3591;SDS011;1810;48.720;9.094;2023-07-13T02:11:34;314.17;;;300.70;;
3591;SDS011;1810;48.720;9.094;2023-07-13T02:14:03;311.27;;;298.13;;
3591;SDS011;1810;48.720;9.094;2023-07-13T02:16:31;308.25;;;295.30;;
3591;SDS011;1810;48.720;9.094;2023-07-13T02:19:02;309.30;;;296.25;;
3591;SDS011;1810;48.720;9.094;2023-07-13T02:21:32;288.83;;;276.75;;
3591;SDS011;1810;48.720;9.094;2023-07-13T02:24:02;290.00;;;277.08;;
3591;SDS011;1810;48.720;9.094;2023-07-13T02:26:32;287.13;;;275.33;;
3591;SDS011;1810;48.720;9.094;2023-07-13T02:29:01;298.83;;;286.48;;
3591;SDS011;1810;48.720;9.094;2023-07-13T02:31:30;297.75;;;285.42;;
3591;SDS011;1810;48.720;9.094;2023-07-13T02:33:59;284.17;;;272.63;;
3591;SDS011;1810;48.720;9.094;2023-07-13T02:36:27;252.77;;;242.45;;
3591;SDS011;1810;48.720;9.094;2023-07-13T02:38:57;237.68;;;228.02;;
3591;SDS011;1810;48.720;9.094;2023-07-13T02:41:27;204.23;;;195.88;;
3591;SDS011;1810;48.720;9.094;2023-07-13T02:43:58;214.63;;;206.00;;
3591;SDS011;1810;48.720;9.094;2023-07-13T02:46:30;187.75;;;180.20;;
3591;SDS011;1810;48.720;9.094;2023-07-13T02:48:59;166.25;;;159.52;;
3591;SDS011;1810;48.720;9.094;2023-07-13T02:51:30;146.98;;;141.13;;
3591;SDS011;1810;48.720;9.094;2023-07-13T02:54:00;95.47;;;91.57;;
3591;SDS011;1810;48.720;9.094;2023-07-13T02:56:30;87.95;;;84.20;;
3591;SDS011;1810;48.720;9.094;2023-07-13T02:59:00;59.65;;;57.15;;
3591;SDS011;1810;48.720;9.094;2023-07-13T03:01:30;69.15;;;66.10;;
3591;SDS011;1810;48.720;9.094;2023-07-13T03:04:01;55.17;;;52.70;;
3591;SDS011;1810;48.720;9.094;2023-07-13T03:06:31;43.65;;;41.50;;
3591;SDS011;1810;48.720;9.094;2023-07-13T03:08:59;43.05;;;41.10;;
3591;SDS011;1810;48.720;9.094;2023-07-13T03:11:52;50.13;;;47.88;;
3591;SDS011;1810;48.720;9.094;2023-07-13T03:14:23;66.25;;;63.42;;
3591;SDS011;1810;48.720;9.094;2023-07-13T03:16:52;110.20;;;105.50;;
3591;SDS011;1810;48.720;9.094;2023-07-13T03:19:21;83.85;;;80.32;;
3591;SDS011;1810;48.720;9.094;2023-07-13T03:21:49;92.13;;;88.32;;
3591;SDS011;1810;48.720;9.094;2023-07-13T03:24:18;111.03;;;106.60;;
3591;SDS011;1810;48.720;9.094;2023-07-13T03:26:47;119.97;;;115.15;;
3591;SDS011;1810;48.720;9.094;2023-07-13T03:29:16;148.57;;;142.65;;
3591;SDS011;1810;48.720;9.094;2023-07-13T03:31:45;162.23;;;155.75;;
3591;SDS011;1810;48.720;9.094;2023-07-13T03:34:14;171.13;;;164.18;;
3591;SDS011;1810;48.720;9.094;2023-07-13T03:36:42;182.50;;;175.00;;
3591;SDS011;1810;48.720;9.094;2023-07-13T03:39:11;222.90;;;213.95;;
3591;SDS011;1810;48.720;9.094;2023-07-13T03:41:39;289.10;;;277.30;;
3591;SDS011;1810;48.720;9.094;2023-07-13T03:44:08;302.00;;;289.20;;
3591;SDS011;1810;48.720;9.094;2023-07-13T03:46:36;326.05;;;312.20;;
3591;SDS011;1810;48.720;9.094;2023-07-13T03:49:06;482.95;;;459.45;;
3591;SDS011;1810;48.720;9.094;2023-07-13T03:51:35;511.35;;;486.23;;
3591;SDS011;1810;48.720;9.094;2023-07-13T03:54:03;528.50;;;502.30;;
3591;SDS011;1810;48.720;9.094;2023-07-13T03:56:32;511.88;;;486.50;;
3591;SDS011;1810;48.720;9.094;2023-07-13T03:59:01;511.00;;;485.92;;
3591;SDS011;1810;48.720;9.094;2023-07-13T04:01:30;516.75;;;491.20;;
3591;SDS011;1810;48.720;9.094;2023-07-13T04:03:58;526.35;;;500.20;;
3591;SDS011;1810;48.720;9.094;2023-07-13T04:06:32;496.40;;;472.27;;
3591;SDS011;1810;48.720;9.094;2023-07-13T04:09:01;507.60;;;482.77;;
3591;SDS011;1810;48.720;9.094;2023-07-13T04:11:33;488.55;;;464.92;;
3591;SDS011;1810;48.720;9.094;2023-07-13T04:14:02;500.23;;;475.65;;
3591;SDS011;1810;48.720;9.094;2023-07-13T04:16:31;518.40;;;492.63;;
3591;SDS011;1810;48.720;9.094;2023-07-13T04:19:03;524.38;;;498.63;;
3591;SDS011;1810;48.720;9.094;2023-07-13T04:21:33;509.15;;;484.10;;
3591;SDS011;1810;48.720;9.094;2023-07-13T04:24:02;501.50;;;476.65;;
3591;SDS011;1810;48.720;9.094;2023-07-13T04:26:32;508.13;;;482.88;;
3591;SDS011;1810;48.720;9.094;2023-07-13T04:29:05;554.23;;;526.10;;
3591;SDS011;1810;48.720;9.094;2023-07-13T04:31:34;540.42;;;513.63;;
3591;SDS011;1810;48.720;9.094;2023-07-13T04:34:04;512.28;;;487.02;;
3591;SDS011;1810;48.720;9.094;2023-07-13T04:36:37;515.35;;;489.85;;
3591;SDS011;1810;48.720;9.094;2023-07-13T04:39:05;493.52;;;468.98;;
3591;SDS011;1810;48.720;9.094;2023-07-13T04:41:33;521.58;;;495.75;;
3591;SDS011;1810;48.720;9.094;2023-07-13T04:44:01;518.70;;;492.70;;
3591;SDS011;1810;48.720;9.094;2023-07-13T04:46:30;514.22;;;488.92;;
3591;SDS011;1810;48.720;9.094;2023-07-13T04:48:59;520.30;;;494.23;;
3591;SDS011;1810;48.720;9.094;2023-07-13T04:51:30;525.85;;;499.60;;
3591;SDS011;1810;48.720;9.094;2023-07-13T04:54:00;501.98;;;477.45;;
3591;SDS011;1810;48.720;9.094;2023-07-13T04:56:28;500.88;;;476.20;;
3591;SDS011;1810;48.720;9.094;2023-07-13T04:58:57;617.53;;;583.42;;
3591;SDS011;1810;48.720;9.094;2023-07-13T05:01:25;505.52;;;480.45;;
3591;SDS011;1810;48.720;9.094;2023-07-13T05:03:54;516.80;;;491.27;;
3591;SDS011;1810;48.720;9.094;2023-07-13T05:06:25;537.72;;;510.33;;
3591;SDS011;1810;48.720;9.094;2023-07-13T05:08:53;537.97;;;510.80;;
3591;SDS011;1810;48.720;9.094;2023-07-13T05:11:23;650.75;;;613.72;;
3591;SDS011;1810;48.720;9.094;2023-07-13T05:13:52;617.63;;;583.72;;
3591;SDS011;1810;48.720;9.094;2023-07-13T05:16:20;661.42;;;622.90;;
3591;SDS011;1810;48.720;9.094;2023-07-13T05:18:49;674.78;;;635.28;;
3591;SDS011;1810;48.720;9.094;2023-07-13T05:21:17;808.38;;;754.45;;
3591;SDS011;1810;48.720;9.094;2023-07-13T05:23:46;684.63;;;643.53;;
3591;SDS011;1810;48.720;9.094;2023-07-13T05:26:15;661.38;;;623.08;;
3591;SDS011;1810;48.720;9.094;2023-07-13T05:28:45;637.75;;;601.97;;
3591;SDS011;1810;48.720;9.094;2023-07-13T05:31:13;612.70;;;578.85;;
3591;SDS011;1810;48.720;9.094;2023-07-13T05:33:42;589.38;;;557.33;;
3591;SDS011;1810;48.720;9.094;2023-07-13T05:36:10;573.72;;;543.15;;
3591;SDS011;1810;48.720;9.094;2023-07-13T05:38:39;626.92;;;592.28;;
3591;SDS011;1810;48.720;9.094;2023-07-13T05:41:07;599.22;;;566.65;;
3591;SDS011;1810;48.720;9.094;2023-07-13T05:43:36;652.20;;;614.60;;
3591;SDS011;1810;48.720;9.094;2023-07-13T05:46:06;760.85;;;711.88;;
3591;SDS011;1810;48.720;9.094;2023-07-13T05:48:34;769.42;;;720.15;;
3591;SDS011;1810;48.720;9.094;2023-07-13T05:51:03;684.05;;;643.60;;
3591;SDS011;1810;48.720;9.094;2023-07-13T05:53:31;721.05;;;676.90;;
3591;SDS011;1810;48.720;9.094;2023-07-13T05:56:01;659.20;;;621.28;;
3591;SDS011;1810;48.720;9.094;2023-07-13T05:58:29;688.55;;;647.75;;
3591;SDS011;1810;48.720;9.094;2023-07-13T06:00:58;768.85;;;718.58;;
3591;SDS011;1810;48.720;9.094;2023-07-13T06:03:29;677.90;;;638.80;;
3591;SDS011;1810;48.720;9.094;2023-07-13T06:05:58;615.85;;;582.25;;
3591;SDS011;1810;48.720;9.094;2023-07-13T06:08:27;583.42;;;552.83;;
3591;SDS011;1810;48.720;9.094;2023-07-13T06:11:01;590.33;;;558.90;;
3591;SDS011;1810;48.720;9.094;2023-07-13T06:13:30;638.22;;;602.05;;
3591;SDS011;1810;48.720;9.094;2023-07-13T06:15:59;573.67;;;543.00;;
3591;SDS011;1810;48.720;9.094;2023-07-13T06:18:32;487.50;;;463.73;;
3591;SDS011;1810;48.720;9.094;2023-07-13T06:21:01;399.85;;;381.55;;
3591;SDS011;1810;48.720;9.094;2023-07-13T06:23:33;330.08;;;315.77;;
3591;SDS011;1810;48.720;9.094;2023-07-13T06:26:01;315.83;;;302.10;;
3591;SDS011;1810;48.720;9.094;2023-07-13T06:28:30;272.50;;;261.13;;
3591;SDS011;1810;48.720;9.094;2023-07-13T06:30:59;247.63;;;237.40;;
3591;SDS011;1810;48.720;9.094;2023-07-13T06:33:28;262.20;;;251.45;;
3591;SDS011;1810;48.720;9.094;2023-07-13T06:35:57;274.73;;;263.23;;
3591;SDS011;1810;48.720;9.094;2023-07-13T06:38:26;283.75;;;271.77;;
3591;SDS011;1810;48.720;9.094;2023-07-13T06:40:55;314.77;;;301.38;;
3591;SDS011;1810;48.720;9.094;2023-07-13T06:43:23;376.77;;;359.83;;
3591;SDS011;1810;48.720;9.094;2023-07-13T06:45:54;442.73;;;421.45;;
3591;SDS011;1810;48.720;9.094;2023-07-13T06:48:23;466.77;;;444.08;;
3591;SDS011;1810;48.720;9.094;2023-07-13T06:50:51;495.80;;;471.23;;
3591;SDS011;1810;48.720;9.094;2023-07-13T06:53:21;558.28;;;529.38;;
3591;SDS011;1810;48.720;9.094;2023-07-13T06:55:50;568.33;;;538.33;;
3591;SDS011;1810;48.720;9.094;2023-07-13T06:58:19;625.17;;;589.83;;
3591;SDS011;1810;48.720;9.094;2023-07-13T07:00:50;711.70;;;667.95;;
3591;SDS011;1810;48.720;9.094;2023-07-13T07:03:19;652.08;;;614.38;;
3591;SDS011;1810;48.720;9.094;2023-07-13T07:05:48;650.92;;;612.60;;
3591;SDS011;1810;48.720;9.094;2023-07-13T07:08:17;664.78;;;625.70;;
3591;SDS011;1810;48.720;9.094;2023-07-13T07:10:46;623.70;;;588.10;;
3591;SDS011;1810;48.720;9.094;2023-07-13T07:13:20;610.88;;;576.85;;
3591;SDS011;1810;48.720;9.094;2023-07-13T07:15:49;646.38;;;609.15;;
3591;SDS011;1810;48.720;9.094;2023-07-13T07:18:18;601.17;;;568.15;;
3591;SDS011;1810;48.720;9.094;2023-07-13T07:20:48;592.22;;;559.60;;
3591;SDS011;1810;48.720;9.094;2023-07-13T07:23:17;680.60;;;640.20;;
3591;SDS011;1810;48.720;9.094;2023-07-13T07:25:47;634.00;;;597.65;;
3591;SDS011;1810;48.720;9.094;2023-07-13T07:28:16;722.90;;;677.70;;
3591;SDS011;1810;48.720;9.094;2023-07-13T07:30:48;602.22;;;569.03;;
3591;SDS011;1810;48.720;9.094;2023-07-13T07:33:39;602.25;;;568.85;;
3591;SDS011;1810;48.720;9.094;2023-07-13T07:36:08;629.40;;;593.63;;
3591;SDS011;1810;48.720;9.094;2023-07-13T07:38:40;603.95;;;570.95;;
3591;SDS011;1810;48.720;9.094;2023-07-13T07:41:11;682.20;;;641.67;;
3591;SDS011;1810;48.720;9.094;2023-07-13T07:43:42;694.30;;;652.33;;
3591;SDS011;1810;48.720;9.094;2023-07-13T07:46:11;611.08;;;577.30;;
3591;SDS011;1810;48.720;9.094;2023-07-13T07:48:40;630.38;;;594.97;;
3591;SDS011;1810;48.720;9.094;2023-07-13T07:51:08;635.38;;;599.08;;
3591;SDS011;1810;48.720;9.094;2023-07-13T07:53:37;682.40;;;642.33;;
3591;SDS011;1810;48.720;9.094;2023-07-13T07:56:05;645.60;;;608.50;;
3591;SDS011;1810;48.720;9.094;2023-07-13T07:58:38;625.75;;;590.88;;
3591;SDS011;1810;48.720;9.094;2023-07-13T08:01:10;718.40;;;673.80;;
3591;SDS011;1810;48.720;9.094;2023-07-13T08:03:41;644.70;;;607.72;;
3591;SDS011;1810;48.720;9.094;2023-07-13T08:06:13;630.80;;;595.08;;
3591;SDS011;1810;48.720;9.094;2023-07-13T08:09:01;668.15;;;628.42;;
3591;SDS011;1810;48.720;9.094;2023-07-13T08:11:30;682.38;;;641.15;;
3591;SDS011;1810;48.720;9.094;2023-07-13T08:14:03;704.30;;;661.55;;
3591;SDS011;1810;48.720;9.094;2023-07-13T08:16:32;665.13;;;625.30;;
3591;SDS011;1810;48.720;9.094;2023-07-13T08:19:00;685.47;;;644.30;;
3591;SDS011;1810;48.720;9.094;2023-07-13T08:21:29;653.75;;;615.35;;
3591;SDS011;1810;48.720;9.094;2023-07-13T08:23:58;696.90;;;655.08;;
3591;SDS011;1810;48.720;9.094;2023-07-13T08:26:26;638.22;;;602.28;;
3591;SDS011;1810;48.720;9.094;2023-07-13T08:28:55;657.65;;;618.92;;
3591;SDS011;1810;48.720;9.094;2023-07-13T08:31:25;658.08;;;619.60;;
3591;SDS011;1810;48.720;9.094;2023-07-13T08:33:53;713.47;;;668.92;;
3591;SDS011;1810;48.720;9.094;2023-07-13T08:36:22;685.20;;;643.65;;
3591;SDS011;1810;48.720;9.094;2023-07-13T08:38:50;677.70;;;637.35;;
3591;SDS011;1810;48.720;9.094;2023-07-13T08:41:19;702.90;;;660.17;;
3591;SDS011;1810;48.720;9.094;2023-07-13T08:43:50;653.13;;;615.30;;
3591;SDS011;1810;48.720;9.094;2023-07-13T08:46:28;721.65;;;676.63;;
3591;SDS011;1810;48.720;9.094;2023-07-13T08:49:01;735.25;;;688.97;;
3591;SDS011;1810;48.720;9.094;2023-07-13T08:51:33;673.50;;;633.50;;
3591;SDS011;1810;48.720;9.094;2023-07-13T08:54:10;699.15;;;656.38;;
3591;SDS011;1810;48.720;9.094;2023-07-13T08:56:45;748.47;;;701.35;;
3591;SDS011;1810;48.720;9.094;2023-07-13T08:59:15;703.95;;;660.65;;
3591;SDS011;1810;48.720;9.094;2023-07-13T09:01:53;775.85;;;726.08;;
3591;SDS011;1810;48.720;9.094;2023-07-13T09:04:29;732.08;;;685.72;;
3591;SDS011;1810;48.720;9.094;2023-07-13T09:07:03;734.75;;;688.58;;
3591;SDS011;1810;48.720;9.094;2023-07-13T09:09:38;733.70;;;687.08;;
3591;SDS011;1810;48.720;9.094;2023-07-13T09:12:14;722.97;;;677.50;;
3591;SDS011;1810;48.720;9.094;2023-07-13T09:17:18;732.03;;;685.53;;
3591;SDS011;1810;48.720;9.094;2023-07-13T09:19:50;753.65;;;705.55;;
3591;SDS011;1810;48.720;9.094;2023-07-13T09:22:22;733.55;;;686.75;;
3591;SDS011;1810;48.720;9.094;2023-07-13T09:24:55;762.38;;;713.40;;
3591;SDS011;1810;48.720;9.094;2023-07-13T09:27:29;736.70;;;689.88;;
3591;SDS011;1810;48.720;9.094;2023-07-13T09:30:02;732.95;;;686.78;;
3591;SDS011;1810;48.720;9.094;2023-07-13T09:32:45;724.67;;;679.40;;
3591;SDS011;1810;48.720;9.094;2023-07-13T09:35:18;730.20;;;684.65;;
3591;SDS011;1810;48.720;9.094;2023-07-13T09:37:48;723.30;;;677.80;;
3591;SDS011;1810;48.720;9.094;2023-07-13T09:40:24;707.78;;;664.00;;
3591;SDS011;1810;48.720;9.094;2023-07-13T09:43:00;762.70;;;713.88;;
3591;SDS011;1810;48.720;9.094;2023-07-13T09:45:33;741.55;;;694.75;;
3591;SDS011;1810;48.720;9.094;2023-07-13T09:48:07;698.75;;;656.05;;
3591;SDS011;1810;48.720;9.094;2023-07-13T09:50:40;716.97;;;672.30;;
3591;SDS011;1810;48.720;9.094;2023-07-13T09:53:11;699.20;;;656.75;;
3591;SDS011;1810;48.720;9.094;2023-07-13T09:55:41;687.83;;;646.28;;
3591;SDS011;1810;48.720;9.094;2023-07-13T09:58:12;699.75;;;656.63;;
3591;SDS011;1810;48.720;9.094;2023-07-13T10:00:44;707.95;;;663.85;;
3591;SDS011;1810;48.720;9.094;2023-07-13T10:03:24;759.25;;;710.03;;
3591;SDS011;1810;48.720;9.094;2023-07-13T10:05:54;707.08;;;663.40;;
3591;SDS011;1810;48.720;9.094;2023-07-13T10:08:29;726.45;;;680.53;;
3591;SDS011;1810;48.720;9.094;2023-07-13T10:10:59;712.22;;;668.03;;
3591;SDS011;1810;48.720;9.094;2023-07-13T10:13:30;705.45;;;661.83;;
3591;SDS011;1810;48.720;9.094;2023-07-13T10:18:38;683.53;;;642.05;;
3591;SDS011;1810;48.720;9.094;2023-07-13T10:21:14;735.00;;;688.17;;
3591;SDS011;1810;48.720;9.094;2023-07-13T10:23:48;761.88;;;713.42;;
3591;SDS011;1810;48.720;9.094;2023-07-13T10:26:20;726.45;;;680.75;;
3591;SDS011;1810;48.720;9.094;2023-07-13T10:28:52;740.45;;;694.25;;
3591;SDS011;1810;48.720;9.094;2023-07-13T10:31:23;703.08;;;660.13;;
3591;SDS011;1810;48.720;9.094;2023-07-13T10:33:54;698.03;;;655.05;;
3591;SDS011;1810;48.720;9.094;2023-07-13T10:36:33;697.85;;;655.03;;
3591;SDS011;1810;48.720;9.094;2023-07-13T10:39:04;743.22;;;695.53;;
3591;SDS011;1810;48.720;9.094;2023-07-13T10:41:35;689.45;;;647.83;;
3591;SDS011;1810;48.720;9.094;2023-07-13T10:44:06;765.67;;;715.80;;
3591;SDS011;1810;48.720;9.094;2023-07-13T10:46:41;681.63;;;640.38;;
3591;SDS011;1810;48.720;9.094;2023-07-13T10:49:12;685.60;;;644.38;;
3591;SDS011;1810;48.720;9.094;2023-07-13T10:51:41;706.63;;;663.60;;
3591;SDS011;1810;48.720;9.094;2023-07-13T10:54:10;684.00;;;642.55;;
3591;SDS011;1810;48.720;9.094;2023-07-13T10:56:52;682.53;;;641.92;;
3591;SDS011;1810;48.720;9.094;2023-07-13T10:59:35;684.83;;;643.53;;
3591;SDS011;1810;48.720;9.094;2023-07-13T11:02:11;664.00;;;624.55;;
3591;SDS011;1810;48.720;9.094;2023-07-13T11:04:45;693.65;;;651.78;;
3591;SDS011;1810;48.720;9.094;2023-07-13T11:07:20;669.30;;;629.42;;
3591;SDS011;1810;48.720;9.094;2023-07-13T11:09:50;670.00;;;630.30;;
3591;SDS011;1810;48.720;9.094;2023-07-13T11:12:27;689.42;;;647.65;;
3591;SDS011;1810;48.720;9.094;2023-07-13T11:15:12;664.67;;;625.40;;
3591;SDS011;1810;48.720;9.094;2023-07-13T11:17:48;695.85;;;653.15;;
3591;SDS011;1810;48.720;9.094;2023-07-13T11:20:31;689.15;;;647.55;;
3591;SDS011;1810;48.720;9.094;2023-07-13T11:23:09;735.30;;;689.75;;
3591;SDS011;1810;48.720;9.094;2023-07-13T11:25:45;655.40;;;617.53;;
3591;SDS011;1810;48.720;9.094;2023-07-13T11:28:21;661.00;;;622.50;;
3591;SDS011;1810;48.720;9.094;2023-07-13T11:31:12;670.40;;;630.75;;
3591;SDS011;1810;48.720;9.094;2023-07-13T11:33:51;679.10;;;638.38;;
3591;SDS011;1810;48.720;9.094;2023-07-13T11:36:24;677.15;;;636.55;;
3591;SDS011;1810;48.720;9.094;2023-07-13T11:39:18;673.55;;;633.65;;
3591;SDS011;1810;48.720;9.094;2023-07-13T11:42:18;703.80;;;660.53;;
3591;SDS011;1810;48.720;9.094;2023-07-13T11:48:23;653.33;;;615.08;;
3591;SDS011;1810;48.720;9.094;2023-07-13T11:54:29;680.67;;;639.78;;
3591;SDS011;1810;48.720;9.094;2023-07-13T11:57:37;675.22;;;635.15;;
3591;SDS011;1810;48.720;9.094;2023-07-13T12:00:54;671.30;;;631.88;;
3591;SDS011;1810;48.720;9.094;2023-07-13T12:03:47;794.63;;;741.75;;
3591;SDS011;1810;48.720;9.094;2023-07-13T12:07:17;672.13;;;632.63;;
3591;SDS011;1810;48.720;9.094;2023-07-13T12:10:40;700.67;;;658.22;;
3591;SDS011;1810;48.720;9.094;2023-07-13T12:13:52;714.70;;;670.53;;
3591;SDS011;1810;48.720;9.094;2023-07-13T12:17:23;719.28;;;674.17;;
3591;SDS011;1810;48.720;9.094;2023-07-13T12:19:54;725.20;;;679.53;;
3591;SDS011;1810;48.720;9.094;2023-07-13T12:22:25;747.47;;;699.67;;
3591;SDS011;1810;48.720;9.094;2023-07-13T12:24:56;739.65;;;692.85;;
3591;SDS011;1810;48.720;9.094;2023-07-13T12:27:26;738.13;;;691.63;;
3591;SDS011;1810;48.720;9.094;2023-07-13T12:29:58;706.63;;;663.03;;
3591;SDS011;1810;48.720;9.094;2023-07-13T12:32:33;724.40;;;678.83;;
3591;SDS011;1810;48.720;9.094;2023-07-13T12:35:07;716.30;;;671.55;;
3591;SDS011;1810;48.720;9.094;2023-07-13T12:37:41;709.30;;;665.35;;
3591;SDS011;1810;48.720;9.094;2023-07-13T12:40:13;731.35;;;685.58;;
3591;SDS011;1810;48.720;9.094;2023-07-13T12:42:42;704.35;;;660.63;;
3591;SDS011;1810;48.720;9.094;2023-07-13T12:45:19;703.80;;;660.08;;
3591;SDS011;1810;48.720;9.094;2023-07-13T12:47:53;716.03;;;671.38;;
3591;SDS011;1810;48.720;9.094;2023-07-13T12:50:23;725.05;;;679.58;;
3591;SDS011;1810;48.720;9.094;2023-07-13T12:55:27;718.53;;;673.65;;
3591;SDS011;1810;48.720;9.094;2023-07-13T12:57:59;722.38;;;676.85;;
3591;SDS011;1810;48.720;9.094;2023-07-13T13:00:31;733.65;;;687.58;;
3591;SDS011;1810;48.720;9.094;2023-07-13T13:03:03;737.65;;;690.78;;
3591;SDS011;1810;48.720;9.094;2023-07-13T13:05:41;715.42;;;670.55;;
3591;SDS011;1810;48.720;9.094;2023-07-13T13:08:11;717.05;;;673.08;;
3591;SDS011;1810;48.720;9.094;2023-07-13T13:10:40;690.25;;;648.33;;
3591;SDS011;1810;48.720;9.094;2023-07-13T13:13:10;709.08;;;663.67;;
3591;SDS011;1810;48.720;9.094;2023-07-13T13:15:39;695.20;;;652.63;;
3591;SDS011;1810;48.720;9.094;2023-07-13T13:18:12;699.80;;;656.65;;
3591;SDS011;1810;48.720;9.094;2023-07-13T13:20:44;793.38;;;740.50;;
3591;SDS011;1810;48.720;9.094;2023-07-13T13:23:13;707.50;;;663.60;;
3591;SDS011;1810;48.720;9.094;2023-07-13T13:25:54;727.63;;;681.28;;
3591;SDS011;1810;48.720;9.094;2023-07-13T13:28:23;711.92;;;667.92;;
3591;SDS011;1810;48.720;9.094;2023-07-13T13:30:52;710.15;;;665.63;;
3591;SDS011;1810;48.720;9.094;2023-07-13T13:33:27;726.97;;;680.77;;
3591;SDS011;1810;48.720;9.094;2023-07-13T13:35:56;718.45;;;673.13;;
3591;SDS011;1810;48.720;9.094;2023-07-13T13:38:25;721.78;;;676.47;;
3591;SDS011;1810;48.720;9.094;2023-07-13T13:40:55;842.58;;;782.92;;
3591;SDS011;1810;48.720;9.094;2023-07-13T13:43:24;711.03;;;666.95;;
3591;SDS011;1810;48.720;9.094;2023-07-13T13:45:54;739.45;;;692.78;;
3591;SDS011;1810;48.720;9.094;2023-07-13T13:48:26;710.50;;;666.13;;
3591;SDS011;1810;48.720;9.094;2023-07-13T13:53:27;708.53;;;664.35;;
3591;SDS011;1810;48.720;9.094;2023-07-13T13:56:02;688.78;;;647.38;;
3591;SDS011;1810;48.720;9.094;2023-07-13T13:58:32;678.97;;;637.90;;
3591;SDS011;1810;48.720;9.094;2023-07-13T14:01:01;664.35;;;624.95;;
3591;SDS011;1810;48.720;9.094;2023-07-13T14:03:38;695.00;;;652.67;;
3591;SDS011;1810;48.720;9.094;2023-07-13T14:06:11;650.72;;;613.13;;
3591;SDS011;1810;48.720;9.094;2023-07-13T14:11:44;609.50;;;575.25;;
3591;SDS011;1810;48.720;9.094;2023-07-13T14:14:22;607.25;;;573.90;;
3591;SDS011;1810;48.720;9.094;2023-07-13T14:16:57;655.00;;;617.55;;
3591;SDS011;1810;48.720;9.094;2023-07-13T14:19:27;642.15;;;605.13;;
3591;SDS011;1810;48.720;9.094;2023-07-13T14:21:56;633.50;;;597.75;;
3591;SDS011;1810;48.720;9.094;2023-07-13T14:24:24;700.85;;;658.10;;
3591;SDS011;1810;48.720;9.094;2023-07-13T14:26:53;665.15;;;625.90;;
3591;SDS011;1810;48.720;9.094;2023-07-13T14:29:21;712.60;;;669.15;;
3591;SDS011;1810;48.720;9.094;2023-07-13T14:31:51;694.83;;;652.35;;
3591;SDS011;1810;48.720;9.094;2023-07-13T14:34:20;718.08;;;673.20;;
3591;SDS011;1810;48.720;9.094;2023-07-13T14:36:55;730.20;;;684.60;;
3591;SDS011;1810;48.720;9.094;2023-07-13T14:39:24;724.40;;;679.53;;
3591;SDS011;1810;48.720;9.094;2023-07-13T14:41:53;700.20;;;657.50;;
3591;SDS011;1810;48.720;9.094;2023-07-13T14:44:24;734.80;;;688.33;;
3591;SDS011;1810;48.720;9.094;2023-07-13T14:46:55;730.47;;;684.55;;
3591;SDS011;1810;48.720;9.094;2023-07-13T14:49:28;724.75;;;679.08;;
3591;SDS011;1810;48.720;9.094;2023-07-13T14:52:00;718.00;;;673.67;;
3591;SDS011;1810;48.720;9.094;2023-07-13T14:54:31;712.50;;;668.20;;
3591;SDS011;1810;48.720;9.094;2023-07-13T14:56:59;723.80;;;678.35;;
3591;SDS011;1810;48.720;9.094;2023-07-13T14:59:28;723.17;;;677.78;;
3591;SDS011;1810;48.720;9.094;2023-07-13T15:01:57;744.13;;;696.33;;
3591;SDS011;1810;48.720;9.094;2023-07-13T15:04:25;723.58;;;677.75;;
3591;SDS011;1810;48.720;9.094;2023-07-13T15:06:54;729.47;;;683.55;;
3591;SDS011;1810;48.720;9.094;2023-07-13T15:09:26;709.10;;;664.75;;
3591;SDS011;1810;48.720;9.094;2023-07-13T15:11:56;724.30;;;678.63;;